Tallahassee, FL (32302)

3:50 PM EST on November 27, 2014 (GMT -0500)
Leon High WeatherSTEM | Change Station
CLOSE
Current Station
Personal Weather Station
Location: Tallahassee, FL
Elevation: 174 ft
Nearby Weather Stations
Active Advisory: Fire Weather Advisory

Elev 174 ft 30.45 °N, 84.28 °W | Updated 10 minutes ago

Clear
Clear
58.4 °F
Feels Like 58.4 °F
N
4.0
Wind Variable Wind from WNW
Gusts 14.0 mph

Today
High -- | Low -- °F
--% Chance of Precip.
Yesterday
High -- | Low -- °F
Precip. -- in
7:13 AM 5:36 PM
Waxing Crescent, 32% visible
Pressure 30.26 in
Visibility 10.0 miles
Clouds Clear
Dew Point 35 °F
Humidity 42%
Rainfall 0.02 in
Snow Depth Not available.
UV 1.1 out of 12
Pollen 3.10 out of 12
Air Quality Not available.
Flu Activity Not available.
METAR KTLH 271953Z 30013KT 10SM CLR 17/M02 A3026 RMK AO2 SLP245 T01671017 $

More Conditions Fewer Conditions

Pressure 30.26 in
Visibility 10.0 miles
Clouds Clear
Dew Point 35 °F
Humidity 42%
Rainfall 0.02 in
Snow Depth Not available.
UV 1.1 out of 12
Pollen 3.10 out of 12
Air Quality Not available.
Flu Activity Not available.
METAR KTLH 271953Z 30013KT 10SM CLR 17/M02 A3026 RMK AO2 SLP245 T01671017 $

More Conditions Fewer Conditions

10-Day Weather Forecast

Almanac

Astronomy

Nov. 27, 2014 Rise Set
Actual Time
Civil Twilight
Nautical Twilight
Astronomical Twilight
Moon
Length of Visible Light
Length of Day
Tomorrow will be .
, % of the Moon is Illuminated

Today's Extremes

State Highs State Lows

Community

WunderPhotos

Upload Photos

1,774,100 photos uploaded!

WunderBlogs® & News

Nearby

Air Quality

  Air Quality AQ Index Pollutant
Not available.

Snow Depth

Station Depth Elevation

Earthquake Activity

City Distance Mag. Time & Date
Minimum magnitude displayed is 2.5.

Coastal Water Temperatures

Place Temperature

Nearby Weather Stations